createdAt,value
2019-06-08T00:00:58.470Z,0.00
2019-06-08T00:01:58.463Z,0.00
2019-06-08T00:02:58.453Z,0.00
2019-06-08T00:03:58.443Z,0.00
2019-06-08T00:04:58.433Z,0.00
2019-06-08T00:05:58.445Z,0.00
2019-06-08T00:06:58.414Z,0.00
2019-06-08T00:07:58.405Z,0.00
2019-06-08T00:08:58.395Z,0.00
2019-06-08T00:09:58.387Z,0.00
2019-06-08T00:10:58.378Z,0.00
2019-06-08T00:11:58.366Z,0.00
2019-06-08T00:12:58.357Z,0.00
2019-06-08T00:13:58.347Z,0.00
2019-06-08T00:14:58.338Z,0.00
2019-06-08T00:15:58.329Z,0.00
2019-06-08T00:16:58.319Z,0.00
2019-06-08T00:17:59.459Z,0.00
2019-06-08T00:18:58.300Z,0.00
2019-06-08T00:19:58.290Z,0.00
2019-06-08T00:20:58.281Z,0.00
2019-06-08T00:21:58.272Z,0.00
2019-06-08T00:22:58.266Z,0.00
2019-06-08T00:23:58.251Z,0.00
2019-06-08T00:24:58.249Z,0.00
2019-06-08T00:25:58.232Z,0.00
2019-06-08T00:26:58.223Z,0.00
2019-06-08T00:27:58.213Z,0.00
2019-06-08T00:28:58.203Z,0.00
2019-06-08T00:29:58.199Z,0.00
2019-06-08T00:30:58.185Z,0.00
2019-06-08T00:31:58.174Z,0.00
2019-06-08T00:32:58.168Z,0.00
2019-06-08T00:33:58.155Z,0.00
2019-06-08T00:34:58.155Z,0.00
2019-06-08T00:35:58.137Z,0.00
2019-06-08T00:36:58.129Z,0.00
2019-06-08T00:37:58.130Z,0.00
2019-06-08T00:38:58.107Z,0.00
2019-06-08T00:39:58.100Z,0.00
2019-06-08T00:40:58.096Z,0.00
2019-06-08T00:41:58.078Z,0.00
2019-06-08T00:42:58.069Z,0.00
2019-06-08T00:43:58.059Z,0.00
2019-06-08T00:44:58.048Z,0.00
2019-06-08T00:45:58.040Z,0.00
2019-06-08T00:46:58.033Z,0.00
2019-06-08T00:47:58.072Z,0.00
2019-06-08T00:48:58.010Z,0.00
2019-06-08T00:49:58.010Z,0.00
2019-06-08T00:50:57.991Z,0.00
2019-06-08T00:51:57.980Z,0.00
2019-06-08T00:52:57.970Z,0.00
2019-06-08T00:53:57.970Z,0.00
2019-06-08T00:54:57.951Z,0.00
2019-06-08T00:55:57.941Z,0.00
2019-06-08T00:56:57.933Z,0.00
2019-06-08T00:57:57.922Z,0.00
2019-06-08T00:58:57.913Z,0.00
2019-06-08T00:59:57.904Z,0.00
2019-06-08T01:00:57.908Z,0.00
2019-06-08T01:01:57.882Z,0.00
2019-06-08T01:02:57.873Z,0.00
2019-06-08T01:03:57.866Z,0.00
2019-06-08T01:04:57.855Z,0.00
2019-06-08T01:05:57.843Z,0.00
2019-06-08T01:06:57.834Z,0.00
2019-06-08T01:07:57.822Z,0.00
2019-06-08T01:08:57.814Z,0.00
2019-06-08T01:09:57.804Z,0.00
2019-06-08T01:10:57.850Z,0.00
2019-06-08T01:11:57.821Z,0.00
2019-06-08T01:12:57.774Z,0.00
2019-06-08T01:13:57.766Z,0.00
2019-06-08T01:14:57.754Z,0.00
2019-06-08T01:15:57.744Z,0.00
2019-06-08T01:16:57.740Z,0.00
2019-06-08T01:18:02.619Z,0.00
2019-06-08T01:18:57.714Z,0.00
2019-06-08T01:19:57.703Z,0.00
2019-06-08T01:20:57.695Z,0.00
2019-06-08T01:21:57.684Z,0.00
2019-06-08T01:22:57.678Z,0.00
2019-06-08T01:23:57.682Z,0.00
2019-06-08T01:24:57.655Z,0.00
2019-06-08T01:25:57.645Z,0.00
2019-06-08T01:26:57.635Z,0.00
2019-06-08T01:27:57.725Z,0.00
2019-06-08T01:28:57.616Z,0.00
2019-06-08T01:29:57.607Z,0.00
2019-06-08T01:30:57.595Z,0.00
2019-06-08T01:31:57.584Z,0.00
2019-06-08T01:32:57.576Z,0.00
2019-06-08T01:33:57.569Z,0.00
2019-06-08T01:34:57.555Z,0.00
2019-06-08T01:35:57.547Z,0.00
2019-06-08T01:36:57.537Z,0.00
2019-06-08T01:37:57.525Z,0.00
2019-06-08T01:38:57.515Z,0.00
2019-06-08T01:39:57.504Z,0.00
2019-06-08T01:40:57.499Z,0.00
2019-06-08T01:41:57.488Z,0.00
2019-06-08T01:42:57.475Z,0.00
2019-06-08T01:43:57.465Z,0.00
2019-06-08T01:44:57.454Z,0.00
2019-06-08T01:45:57.444Z,0.00
2019-06-08T01:46:57.435Z,0.00
2019-06-08T01:47:57.424Z,0.00
2019-06-08T01:48:57.416Z,0.00
2019-06-08T01:49:57.405Z,0.00
2019-06-08T01:50:57.394Z,0.00
2019-06-08T01:51:57.383Z,0.00
2019-06-08T01:52:57.375Z,0.00
2019-06-08T01:53:57.407Z,0.00
2019-06-08T01:54:57.370Z,0.00
2019-06-08T01:55:57.344Z,0.00
2019-06-08T01:56:57.334Z,0.00
2019-06-08T01:57:57.324Z,0.00
2019-06-08T01:58:57.314Z,0.00
2019-06-08T01:59:57.304Z,0.00
2019-06-08T02:00:57.294Z,0.00
2019-06-08T02:01:57.290Z,0.00
2019-06-08T02:02:57.275Z,0.00
2019-06-08T02:03:57.271Z,0.00
2019-06-08T02:04:57.256Z,0.00
2019-06-08T02:05:57.247Z,0.00
2019-06-08T02:06:57.250Z,0.00
2019-06-08T02:07:57.230Z,0.00
2019-06-08T02:08:57.217Z,0.00
2019-06-08T02:09:57.207Z,0.00
2019-06-08T02:10:57.194Z,0.00
2019-06-08T02:11:57.185Z,0.00
2019-06-08T02:12:57.174Z,0.00
2019-06-08T02:13:57.164Z,0.00
2019-06-08T02:14:57.158Z,0.00
2019-06-08T02:15:57.146Z,0.00
2019-06-08T02:16:57.137Z,0.00
2019-06-08T02:17:57.126Z,0.00
2019-06-08T02:18:57.115Z,0.00
2019-06-08T02:19:57.105Z,0.00
2019-06-08T02:20:57.095Z,0.00
2019-06-08T02:21:57.086Z,0.00
2019-06-08T02:22:57.085Z,0.00
2019-06-08T02:23:57.068Z,0.00
2019-06-08T02:24:57.055Z,0.00
2019-06-08T02:25:57.046Z,0.00
2019-06-08T02:26:57.036Z,0.00
2019-06-08T02:27:57.025Z,0.00
2019-06-08T02:28:57.016Z,0.00
2019-06-08T02:29:57.007Z,0.00
2019-06-08T02:30:56.997Z,0.00
2019-06-08T02:31:56.987Z,0.00
2019-06-08T02:32:56.976Z,0.00
2019-06-08T02:33:56.969Z,0.00
2019-06-08T02:34:56.958Z,0.00
2019-06-08T02:35:56.947Z,0.00
2019-06-08T02:36:56.938Z,0.00
2019-06-08T02:37:56.929Z,0.00
2019-06-08T02:38:56.919Z,0.00
2019-06-08T02:39:56.908Z,0.00
2019-06-08T02:40:56.907Z,0.00
2019-06-08T02:41:56.889Z,0.00
2019-06-08T02:42:56.879Z,0.00
2019-06-08T02:43:56.870Z,0.00
2019-06-08T02:44:56.860Z,0.00
2019-06-08T02:45:56.849Z,0.00
2019-06-08T02:46:56.841Z,0.00
2019-06-08T02:47:56.830Z,0.00
2019-06-08T02:49:04.187Z,0.00
2019-06-08T02:49:56.812Z,0.00
2019-06-08T02:50:56.822Z,0.00
2019-06-08T02:51:56.795Z,0.00
2019-06-08T02:52:56.781Z,0.00
2019-06-08T02:53:56.771Z,4.00
2019-06-08T02:54:56.762Z,4.00
2019-06-08T02:55:56.751Z,0.00
2019-06-08T02:56:56.743Z,0.00
2019-06-08T02:57:56.732Z,4.00
2019-06-08T02:58:56.721Z,4.00
2019-06-08T02:59:56.712Z,4.00
2019-06-08T03:00:56.703Z,8.00
2019-06-08T03:01:56.692Z,4.00
2019-06-08T03:02:56.683Z,4.00
2019-06-08T03:03:56.689Z,4.00
2019-06-08T03:04:56.661Z,8.00
2019-06-08T03:05:56.653Z,8.00
2019-06-08T03:06:56.643Z,8.00
2019-06-08T03:07:56.632Z,8.00
2019-06-08T03:08:56.622Z,8.00
2019-06-08T03:09:56.618Z,8.00
2019-06-08T03:10:56.604Z,12.00
2019-06-08T03:11:56.613Z,16.00
2019-06-08T03:12:56.584Z,12.00
2019-06-08T03:13:56.578Z,16.00
2019-06-08T03:14:56.564Z,16.00
2019-06-08T03:15:56.554Z,16.00
2019-06-08T03:16:56.544Z,16.00
2019-06-08T03:17:56.534Z,20.00
2019-06-08T03:18:56.524Z,20.00
2019-06-08T03:19:56.520Z,24.00
2019-06-08T03:20:56.512Z,24.00
2019-06-08T03:21:56.499Z,24.00
2019-06-08T03:22:56.486Z,28.00
2019-06-08T03:23:56.475Z,32.00
2019-06-08T03:24:56.468Z,32.00
2019-06-08T03:25:56.478Z,32.00
2019-06-08T03:26:56.445Z,36.00
2019-06-08T03:27:56.435Z,40.00
2019-06-08T03:28:56.426Z,40.00
2019-06-08T03:29:56.416Z,40.00
2019-06-08T03:30:56.408Z,36.00
2019-06-08T03:31:57.622Z,44.00
2019-06-08T03:32:57.259Z,48.00
2019-06-08T03:33:56.862Z,64.00
2019-06-08T03:34:57.311Z,60.00
2019-06-08T03:35:58.398Z,68.00
2019-06-08T03:36:57.595Z,80.00
2019-06-08T03:37:56.347Z,84.00
2019-06-08T03:38:56.330Z,88.00
2019-06-08T03:39:56.319Z,88.00
2019-06-08T03:40:56.310Z,88.00
2019-06-08T03:41:56.300Z,100.00
2019-06-08T03:42:58.016Z,108.00
2019-06-08T03:43:56.281Z,124.00
2019-06-08T03:44:56.271Z,136.00
2019-06-08T03:45:56.261Z,144.00
2019-06-08T03:46:56.253Z,196.00
2019-06-08T03:47:56.245Z,224.00
2019-06-08T03:48:56.230Z,244.00
2019-06-08T03:49:57.514Z,272.00
2019-06-08T03:50:56.211Z,252.00
2019-06-08T03:51:56.203Z,312.00
2019-06-08T03:52:56.191Z,352.00
2019-06-08T03:53:56.181Z,336.00
2019-06-08T03:54:56.179Z,248.00
2019-06-08T03:55:56.163Z,240.00
2019-06-08T03:56:56.151Z,216.00
2019-06-08T03:57:56.144Z,200.00
2019-06-08T03:58:56.162Z,204.00
2019-06-08T03:59:56.121Z,196.00
2019-06-08T04:00:56.111Z,208.00
2019-06-08T04:01:56.102Z,220.00
2019-06-08T04:02:56.092Z,228.00
2019-06-08T04:03:59.957Z,224.00
2019-06-08T04:04:56.084Z,248.00
2019-06-08T04:05:56.064Z,256.00
2019-06-08T04:06:56.053Z,272.00
2019-06-08T04:07:56.043Z,276.00
2019-06-08T04:08:56.032Z,328.00
2019-06-08T04:09:56.023Z,356.00
2019-06-08T04:10:56.013Z,304.00
2019-06-08T04:11:56.003Z,308.00
2019-06-08T04:12:55.993Z,348.00
2019-06-08T04:13:55.984Z,300.00
2019-06-08T04:14:55.974Z,284.00
2019-06-08T04:15:55.962Z,320.00
2019-06-08T04:16:55.953Z,388.00
2019-06-08T04:17:55.943Z,356.00
2019-06-08T04:18:55.940Z,364.00
2019-06-08T04:20:10.322Z,416.00
2019-06-08T04:20:55.915Z,440.00
2019-06-08T04:21:55.906Z,552.00
2019-06-08T04:22:55.895Z,624.00
2019-06-08T04:23:55.885Z,696.00
2019-06-08T04:24:55.876Z,556.00
2019-06-08T04:25:55.872Z,468.00
2019-06-08T04:26:55.855Z,468.00
2019-06-08T04:27:55.849Z,456.00
2019-06-08T04:28:55.835Z,416.00
2019-06-08T04:29:55.826Z,408.00
2019-06-08T04:30:55.820Z,400.00
2019-06-08T04:31:55.805Z,504.00
2019-06-08T04:32:55.803Z,576.00
2019-06-08T04:33:55.787Z,468.00
2019-06-08T04:34:55.780Z,424.00
2019-06-08T04:35:55.766Z,348.00
2019-06-08T04:36:55.756Z,240.00
2019-06-08T04:37:55.750Z,240.00
2019-06-08T04:38:55.739Z,236.00
2019-06-08T04:39:55.729Z,216.00
2019-06-08T04:40:55.715Z,204.00
2019-06-08T04:41:55.712Z,196.00
2019-06-08T04:42:55.699Z,224.00
2019-06-08T04:43:55.687Z,208.00
2019-06-08T04:44:55.679Z,208.00
2019-06-08T04:45:55.666Z,204.00
2019-06-08T04:46:55.659Z,228.00
2019-06-08T04:47:55.646Z,248.00
2019-06-08T04:48:55.637Z,232.00
2019-06-08T04:49:55.627Z,212.00
2019-06-08T04:50:55.620Z,248.00
2019-06-08T04:51:55.608Z,284.00
2019-06-08T04:52:55.597Z,352.00
2019-06-08T04:53:55.587Z,404.00
2019-06-08T04:54:55.576Z,460.00
2019-06-08T04:55:55.573Z,532.00
2019-06-08T04:56:55.557Z,544.00
2019-06-08T04:57:55.546Z,540.00
2019-06-08T04:58:55.538Z,516.00
2019-06-08T04:59:55.525Z,628.00
2019-06-08T05:00:55.516Z,700.00
2019-06-08T05:01:55.507Z,608.00
2019-06-08T05:02:55.496Z,464.00
2019-06-08T05:03:55.487Z,484.00
2019-06-08T05:04:55.477Z,552.00
2019-06-08T05:05:55.467Z,536.00
2019-06-08T05:06:55.459Z,524.00
2019-06-08T05:07:55.452Z,580.00
2019-06-08T05:08:55.438Z,644.00
2019-06-08T05:09:55.427Z,716.00
2019-06-08T05:10:55.418Z,668.00
2019-06-08T05:11:55.407Z,612.00
2019-06-08T05:12:55.397Z,548.00
2019-06-08T05:13:55.390Z,604.00
2019-06-08T05:14:55.377Z,640.00
2019-06-08T05:15:55.367Z,536.00
2019-06-08T05:16:55.364Z,576.00
2019-06-08T05:17:55.348Z,624.00
2019-06-08T05:18:55.337Z,636.00
2019-06-08T05:19:55.326Z,668.00
2019-06-08T05:20:55.317Z,724.00
2019-06-08T05:21:55.309Z,736.00
2019-06-08T05:22:55.300Z,840.00
2019-06-08T05:23:58.984Z,856.00
2019-06-08T05:24:55.276Z,860.00
2019-06-08T05:25:55.265Z,928.00
2019-06-08T05:26:55.257Z,864.00
2019-06-08T05:27:55.245Z,884.00
2019-06-08T05:28:55.238Z,992.00
2019-06-08T05:29:55.225Z,928.00
2019-06-08T05:30:55.216Z,908.00
2019-06-08T05:31:55.213Z,996.00
2019-06-08T05:32:55.195Z,984.00
2019-06-08T05:33:55.187Z,1032.00
2019-06-08T05:34:55.178Z,1096.00
2019-06-08T05:35:55.165Z,1328.00
2019-06-08T05:36:55.155Z,1280.00
2019-06-08T05:37:55.153Z,1184.00
2019-06-08T05:38:55.135Z,1344.00
2019-06-08T05:39:55.124Z,1384.00
2019-06-08T05:40:55.116Z,1220.00
2019-06-08T05:41:55.106Z,1304.00
2019-06-08T05:42:55.095Z,1324.00
2019-06-08T05:43:55.089Z,1428.00
2019-06-08T05:44:55.075Z,1608.00
2019-06-08T05:45:55.071Z,1432.00
2019-06-08T05:46:55.055Z,1400.00
2019-06-08T05:47:55.045Z,1592.00
2019-06-08T05:48:55.035Z,1584.00
2019-06-08T05:49:55.026Z,1744.00
2019-06-08T05:51:03.607Z,1904.00
2019-06-08T05:51:55.004Z,2300.00
2019-06-08T05:52:54.994Z,2316.00
2019-06-08T05:53:54.984Z,2044.00
2019-06-08T05:54:54.976Z,2136.00
2019-06-08T05:55:54.964Z,2404.00
2019-06-08T05:56:54.954Z,2724.00
2019-06-08T05:57:54.944Z,2584.00
2019-06-08T05:58:54.934Z,2524.00
2019-06-08T05:59:54.924Z,2004.00
2019-06-08T06:00:54.917Z,1976.00
2019-06-08T06:01:54.905Z,2596.00
2019-06-08T06:02:54.894Z,2404.00
2019-06-08T06:03:54.887Z,2468.00
2019-06-08T06:04:54.956Z,2860.00
2019-06-08T06:05:54.864Z,2288.00
2019-06-08T06:06:54.855Z,2448.00
2019-06-08T06:07:54.847Z,2436.00
2019-06-08T06:08:54.835Z,2004.00
2019-06-08T06:09:54.825Z,2236.00
2019-06-08T06:10:54.814Z,2328.00
2019-06-08T06:11:54.808Z,3128.00
2019-06-08T06:12:54.794Z,3488.00
2019-06-08T06:13:54.785Z,2600.00
2019-06-08T06:14:54.774Z,2444.00
2019-06-08T06:15:54.764Z,2928.00
2019-06-08T06:16:54.755Z,2400.00
2019-06-08T06:17:54.745Z,2472.00
2019-06-08T06:18:54.735Z,2780.00
2019-06-08T06:19:54.724Z,2616.00
2019-06-08T06:21:09.745Z,3568.00
2019-06-08T06:21:54.707Z,3440.00
2019-06-08T06:22:58.325Z,4152.00
2019-06-08T06:23:54.684Z,5200.00
2019-06-08T06:24:54.681Z,6860.00
2019-06-08T06:25:54.665Z,7476.00
2019-06-08T06:26:54.655Z,6992.00
2019-06-08T06:27:54.644Z,7964.00
2019-06-08T06:28:54.636Z,7880.00
2019-06-08T06:29:54.624Z,9364.00
2019-06-08T06:30:54.617Z,11260.00
2019-06-08T06:31:54.605Z,10804.00
2019-06-08T06:32:54.594Z,10012.00
2019-06-08T06:33:54.584Z,9768.00
2019-06-08T06:34:54.582Z,8792.00
2019-06-08T06:35:54.565Z,8596.00
2019-06-08T06:36:57.271Z,10612.00
2019-06-08T06:37:54.546Z,12412.00
2019-06-08T06:38:54.537Z,11220.00
2019-06-08T06:39:54.528Z,10268.00
2019-06-08T06:40:54.521Z,11132.00
2019-06-08T06:41:54.508Z,12564.00
2019-06-08T06:42:54.506Z,9132.00
2019-06-08T06:43:54.488Z,12644.00
2019-06-08T06:44:54.481Z,15208.00
2019-06-08T06:45:54.470Z,19264.00
2019-06-08T06:46:54.469Z,14572.00
2019-06-08T06:47:54.464Z,18240.00
2019-06-08T06:48:54.449Z,14144.00
2019-06-08T06:49:54.435Z,16256.00
2019-06-08T06:50:54.429Z,15384.00
2019-06-08T06:51:54.416Z,15132.00
2019-06-08T06:52:54.408Z,17856.00
2019-06-08T06:53:54.399Z,18592.00
2019-06-08T06:54:54.391Z,24416.00
2019-06-08T06:55:54.382Z,13352.00
2019-06-08T06:56:54.380Z,12780.00
2019-06-08T06:57:54.366Z,14812.00
2019-06-08T06:58:54.358Z,15296.00
2019-06-08T06:59:54.476Z,18784.00
2019-06-08T07:00:54.340Z,18688.00
2019-06-08T07:01:57.455Z,25280.00
2019-06-08T07:02:54.324Z,27584.00
2019-06-08T07:03:54.472Z,17472.00
2019-06-08T07:04:54.431Z,17024.00
2019-06-08T07:05:54.427Z,17952.00
2019-06-08T07:06:54.492Z,29600.00
2019-06-08T07:07:54.549Z,15824.00
2019-06-08T07:08:54.697Z,12016.00
2019-06-08T07:09:54.891Z,14360.00
2019-06-08T07:10:55.218Z,26176.00
2019-06-08T07:11:56.155Z,28992.00
2019-06-08T07:12:54.850Z,34080.00
2019-06-08T07:13:55.173Z,18880.00
2019-06-08T07:14:55.510Z,15688.00
2019-06-08T07:15:57.564Z,16736.00
2019-06-08T07:16:54.213Z,18336.00
2019-06-08T07:17:54.982Z,18464.00
2019-06-08T07:18:54.578Z,90208.00
2019-06-08T07:19:54.696Z,26944.00
2019-06-08T07:20:54.423Z,11508.00
2019-06-08T07:21:54.794Z,9836.00
2019-06-08T07:22:54.426Z,11728.00
2019-06-08T07:23:56.066Z,19040.00
2019-06-08T07:24:54.569Z,10620.00
2019-06-08T07:25:54.538Z,15796.00
2019-06-08T07:26:54.558Z,15672.00
2019-06-08T07:27:55.101Z,15576.00
2019-06-08T07:28:55.296Z,9732.00
2019-06-08T07:29:54.759Z,10364.00
2019-06-08T07:30:54.901Z,13684.00
2019-06-08T07:31:55.354Z,9008.00
2019-06-08T07:32:55.093Z,11696.00
2019-06-08T07:33:55.528Z,14120.00
2019-06-08T07:34:55.156Z,14036.00
2019-06-08T07:35:55.241Z,10152.00
2019-06-08T07:36:55.394Z,20512.00
2019-06-08T07:37:55.434Z,8628.00
2019-06-08T07:38:54.046Z,11104.00
2019-06-08T07:39:54.037Z,18912.00
2019-06-08T07:40:57.404Z,109248.00
2019-06-08T07:41:54.330Z,48992.00
2019-06-08T07:42:55.241Z,114816.00
2019-06-08T07:43:54.438Z,114240.00
2019-06-08T07:44:55.109Z,71712.00
2019-06-08T07:45:54.202Z,113856.00
2019-06-08T07:46:53.987Z,73600.00
2019-06-08T07:47:54.056Z,115616.00
2019-06-08T07:48:54.380Z,91168.00
2019-06-08T07:49:55.483Z,101248.00
2019-06-08T07:50:54.327Z,47040.00
2019-06-08T07:52:02.413Z,121920.00
2019-06-08T07:52:54.640Z,104832.00
2019-06-08T07:53:53.957Z,114048.00
2019-06-08T07:54:54.703Z,119072.00
2019-06-08T07:55:53.946Z,108384.00
2019-06-08T07:56:54.955Z,98368.00
2019-06-08T07:57:54.095Z,120096.00
2019-06-08T07:58:55.033Z,115232.00
2019-06-08T07:59:54.592Z,118464.00
2019-06-08T08:00:54.933Z,119264.00
2019-06-08T08:01:54.020Z,117920.00
2019-06-08T08:02:54.356Z,114528.00
2019-06-08T08:03:54.222Z,121120.00
2019-06-08T08:04:54.582Z,120000.00
2019-06-08T08:05:55.043Z,117824.00
2019-06-08T08:06:54.546Z,123232.00
2019-06-08T08:07:54.746Z,124256.00
2019-06-08T08:08:54.840Z,111712.00
2019-06-08T08:09:54.921Z,129920.00
2019-06-08T08:10:54.572Z,69920.00
2019-06-08T08:11:55.226Z,27616.00
2019-06-08T08:12:54.772Z,30048.00
2019-06-08T08:13:54.868Z,26816.00
2019-06-08T08:14:55.204Z,23168.00
2019-06-08T08:15:57.273Z,18240.00
2019-06-08T08:16:55.032Z,25120.00
2019-06-08T08:17:54.241Z,23488.00
2019-06-08T08:18:53.908Z,23904.00
2019-06-08T08:19:55.101Z,15416.00
2019-06-08T08:20:55.139Z,11424.00
2019-06-08T08:21:54.973Z,11448.00
2019-06-08T08:22:57.883Z,11116.00
2019-06-08T08:23:55.177Z,10884.00
2019-06-08T08:24:56.108Z,13144.00
2019-06-08T08:25:55.164Z,14276.00
2019-06-08T08:26:55.013Z,13052.00
2019-06-08T08:27:53.868Z,10176.00
2019-06-08T08:28:55.136Z,11092.00
2019-06-08T08:29:53.858Z,12628.00
2019-06-08T08:30:53.897Z,10248.00
2019-06-08T08:31:53.846Z,8548.00
2019-06-08T08:32:55.083Z,8560.00
2019-06-08T08:33:54.633Z,7512.00
2019-06-08T08:34:53.849Z,9352.00
2019-06-08T08:35:53.822Z,9308.00
2019-06-08T08:36:53.816Z,9960.00
2019-06-08T08:37:58.000Z,8736.00
2019-06-08T08:38:53.803Z,8328.00
2019-06-08T08:39:53.794Z,7988.00
2019-06-08T08:40:55.179Z,6748.00
2019-06-08T08:41:56.950Z,8588.00
2019-06-08T08:42:53.851Z,8876.00
2019-06-08T08:43:54.394Z,8456.00
2019-06-08T08:44:54.212Z,7328.00
2019-06-08T08:45:53.990Z,10716.00
2019-06-08T08:46:54.741Z,12692.00
2019-06-08T08:48:10.365Z,13008.00
2019-06-08T08:48:54.260Z,11344.00
2019-06-08T08:49:54.049Z,13360.00
2019-06-08T08:50:54.163Z,11464.00
2019-06-08T08:51:54.043Z,10268.00
2019-06-08T08:52:54.167Z,10652.00
2019-06-08T08:53:55.843Z,12904.00
2019-06-08T08:54:54.308Z,18848.00
2019-06-08T08:55:54.318Z,19776.00
2019-06-08T08:56:55.419Z,29728.00
2019-06-08T08:57:54.781Z,9728.00
2019-06-08T08:58:54.404Z,13204.00
2019-06-08T08:59:56.302Z,19328.00
2019-06-08T09:00:55.036Z,26336.00
2019-06-08T09:01:54.690Z,22048.00
2019-06-08T09:03:13.121Z,14364.00
2019-06-08T09:03:56.008Z,13184.00
2019-06-08T09:04:55.159Z,8992.00
2019-06-08T09:05:54.702Z,11852.00
2019-06-08T09:06:55.143Z,12696.00
2019-06-08T09:07:53.765Z,13164.00
2019-06-08T09:08:53.926Z,10804.00
2019-06-08T09:09:53.609Z,12012.00
2019-06-08T09:10:53.569Z,15364.00
2019-06-08T09:11:54.905Z,17376.00
2019-06-08T09:12:53.961Z,17696.00
2019-06-08T09:13:53.866Z,15804.00
2019-06-08T09:14:54.862Z,14996.00
2019-06-08T09:15:53.839Z,14436.00
2019-06-08T09:16:53.788Z,14532.00
2019-06-08T09:17:53.854Z,17664.00
2019-06-08T09:18:53.875Z,22752.00
2019-06-08T09:19:54.078Z,15260.00
2019-06-08T09:20:54.010Z,13496.00
2019-06-08T09:21:54.034Z,16416.00
2019-06-08T09:23:00.764Z,18976.00
2019-06-08T09:23:53.999Z,17984.00
2019-06-08T09:24:54.251Z,16896.00
2019-06-08T09:25:55.703Z,17536.00
2019-06-08T09:26:54.218Z,21344.00
2019-06-08T09:27:54.656Z,17568.00
2019-06-08T09:28:54.486Z,26592.00
2019-06-08T09:29:54.965Z,22816.00
2019-06-08T09:30:54.155Z,17472.00
2019-06-08T09:31:53.941Z,20928.00
2019-06-08T09:32:54.416Z,40704.00
2019-06-08T09:34:01.067Z,64768.00
2019-06-08T09:34:54.555Z,32032.00
2019-06-08T09:35:54.768Z,32512.00
2019-06-08T09:36:54.964Z,30240.00
2019-06-08T09:37:54.828Z,51104.00
2019-06-08T09:38:55.988Z,39808.00
2019-06-08T09:39:53.919Z,36448.00
2019-06-08T09:40:54.861Z,34688.00
2019-06-08T09:41:54.192Z,33888.00
2019-06-08T09:42:59.127Z,28672.00
2019-06-08T09:43:55.283Z,23680.00
2019-06-08T09:44:55.117Z,27712.00
2019-06-08T09:45:54.174Z,17824.00
2019-06-08T09:46:54.022Z,14316.00
2019-06-08T09:47:54.272Z,13856.00
2019-06-08T09:48:54.545Z,14016.00
2019-06-08T09:49:54.199Z,16012.00
2019-06-08T09:50:53.320Z,17984.00
2019-06-08T09:51:54.388Z,14388.00
2019-06-08T09:53:10.100Z,12680.00
2019-06-08T09:53:54.699Z,13428.00
2019-06-08T09:54:54.255Z,13744.00
2019-06-08T09:55:54.711Z,15356.00
2019-06-08T09:56:53.720Z,14640.00
2019-06-08T09:57:54.550Z,11916.00
2019-06-08T09:58:55.924Z,12284.00
2019-06-08T09:59:54.791Z,11420.00
2019-06-08T10:00:54.532Z,12364.00
2019-06-08T10:01:53.983Z,12792.00
2019-06-08T10:02:54.636Z,11272.00
2019-06-08T10:03:54.322Z,12492.00
2019-06-08T10:04:54.185Z,13624.00
2019-06-08T10:05:54.220Z,14568.00
2019-06-08T10:06:54.290Z,16928.00
2019-06-08T10:07:54.407Z,45312.00
2019-06-08T10:08:54.283Z,41888.00
2019-06-08T10:09:54.272Z,72864.00
2019-06-08T10:10:54.400Z,66240.00
2019-06-08T10:11:54.262Z,53312.00
2019-06-08T10:12:54.599Z,57696.00
2019-06-08T10:13:54.384Z,66240.00
2019-06-08T10:14:54.490Z,22464.00
2019-06-08T10:15:54.802Z,76704.00
2019-06-08T10:16:54.148Z,22368.00
2019-06-08T10:17:54.685Z,21952.00
2019-06-08T10:18:54.832Z,26880.00
2019-06-08T10:19:54.529Z,34624.00
2019-06-08T10:20:54.676Z,21760.00
2019-06-08T10:21:54.706Z,38336.00
2019-06-08T10:22:54.723Z,61824.00
2019-06-08T10:23:54.751Z,25984.00
2019-06-08T10:24:53.236Z,52416.00
2019-06-08T10:25:53.145Z,28928.00
2019-06-08T10:26:53.147Z,44416.00
2019-06-08T10:27:53.139Z,31840.00
2019-06-08T10:28:53.137Z,68544.00
2019-06-08T10:29:53.136Z,43296.00
2019-06-08T10:30:53.134Z,66976.00
2019-06-08T10:31:53.138Z,64352.00
2019-06-08T10:32:53.139Z,67424.00
2019-06-08T10:33:53.131Z,68416.00
2019-06-08T10:34:53.132Z,68288.00
2019-06-08T10:35:53.131Z,53920.00
2019-06-08T10:36:53.135Z,65312.00
2019-06-08T10:37:55.156Z,70560.00
2019-06-08T10:38:53.141Z,70624.00
2019-06-08T10:39:53.136Z,63424.00
2019-06-08T10:40:53.141Z,44160.00
2019-06-08T10:41:53.140Z,12772.00
2019-06-08T10:42:53.146Z,56800.00
2019-06-08T10:43:53.141Z,68864.00
2019-06-08T10:44:53.150Z,72864.00
2019-06-08T10:45:53.143Z,57664.00
2019-06-08T10:46:53.147Z,78048.00
2019-06-08T10:47:53.145Z,73536.00
2019-06-08T10:48:53.159Z,72352.00
2019-06-08T10:49:53.150Z,71232.00
2019-06-08T10:50:53.152Z,64896.00
2019-06-08T10:51:53.164Z,67392.00
2019-06-08T10:52:53.156Z,71296.00
2019-06-08T10:53:53.809Z,25952.00
2019-06-08T10:54:53.168Z,23424.00
2019-06-08T10:55:53.165Z,90752.00
2019-06-08T10:56:53.165Z,75168.00
2019-06-08T10:57:53.166Z,91040.00
2019-06-08T10:58:53.185Z,49472.00
2019-06-08T10:59:53.171Z,23264.00
2019-06-08T11:00:53.173Z,24448.00
2019-06-08T11:01:53.173Z,24064.00
2019-06-08T11:02:53.176Z,35840.00
2019-06-08T11:03:53.181Z,33632.00
2019-06-08T11:04:53.175Z,29952.00
2019-06-08T11:05:53.225Z,85536.00
2019-06-08T11:06:53.174Z,29984.00
2019-06-08T11:07:53.189Z,24832.00
2019-06-08T11:08:53.175Z,21376.00
2019-06-08T11:09:53.171Z,12320.00
2019-06-08T11:10:53.170Z,15076.00
2019-06-08T11:11:53.169Z,19616.00
2019-06-08T11:12:53.174Z,17664.00
2019-06-08T11:13:53.163Z,12676.00
2019-06-08T11:14:53.165Z,10548.00
2019-06-08T11:15:53.155Z,14444.00
2019-06-08T11:16:53.153Z,22592.00
2019-06-08T11:17:53.148Z,23680.00
2019-06-08T11:18:53.154Z,26752.00
2019-06-08T11:19:53.140Z,25248.00
2019-06-08T11:20:53.137Z,32064.00
2019-06-08T11:21:53.133Z,26528.00
2019-06-08T11:22:53.133Z,35936.00
2019-06-08T11:24:05.482Z,19040.00
2019-06-08T11:24:53.121Z,14620.00
2019-06-08T11:25:53.116Z,12360.00
2019-06-08T11:26:53.112Z,9524.00
2019-06-08T11:27:53.107Z,8768.00
2019-06-08T11:28:53.103Z,9908.00
2019-06-08T11:29:53.100Z,16416.00
2019-06-08T11:30:53.094Z,22144.00
2019-06-08T11:31:53.088Z,51200.00
2019-06-08T11:32:53.083Z,33696.00
2019-06-08T11:33:53.087Z,27552.00
2019-06-08T11:34:53.079Z,27392.00
2019-06-08T11:35:53.104Z,19776.00
2019-06-08T11:36:53.065Z,45376.00
2019-06-08T11:37:53.101Z,24128.00
2019-06-08T11:38:53.120Z,25216.00
2019-06-08T11:39:53.051Z,24544.00
2019-06-08T11:40:53.048Z,40096.00
2019-06-08T11:41:53.056Z,41152.00
2019-06-08T11:42:53.040Z,32416.00
2019-06-08T11:43:53.035Z,28512.00
2019-06-08T11:44:53.046Z,28416.00
2019-06-08T11:45:53.029Z,31200.00
2019-06-08T11:46:53.031Z,43296.00
2019-06-08T11:47:53.035Z,26272.00
2019-06-08T11:48:53.017Z,25440.00
2019-06-08T11:49:53.014Z,28480.00
2019-06-08T11:50:53.025Z,22048.00
2019-06-08T11:51:53.009Z,17600.00
2019-06-08T11:52:53.003Z,17312.00
2019-06-08T11:53:53.036Z,18368.00
2019-06-08T11:54:52.997Z,19520.00
2019-06-08T11:55:52.992Z,17376.00
2019-06-08T11:56:52.988Z,15268.00
2019-06-08T11:57:52.984Z,16704.00
2019-06-08T11:58:52.984Z,18848.00
2019-06-08T11:59:52.975Z,25472.00
2019-06-08T12:00:52.971Z,26528.00
2019-06-08T12:01:52.968Z,26880.00
2019-06-08T12:02:52.966Z,40992.00
2019-06-08T12:03:52.960Z,65184.00
2019-06-08T12:04:52.955Z,15792.00
2019-06-08T12:05:52.952Z,21856.00
2019-06-08T12:06:52.949Z,20896.00
2019-06-08T12:07:52.945Z,15904.00
2019-06-08T12:08:52.941Z,16960.00
2019-06-08T12:09:52.938Z,16184.00
2019-06-08T12:10:52.933Z,11572.00
2019-06-08T12:11:52.929Z,8464.00
2019-06-08T12:12:52.925Z,9412.00
2019-06-08T12:13:52.921Z,12700.00
2019-06-08T12:14:52.917Z,12552.00
2019-06-08T12:15:52.911Z,10748.00
2019-06-08T12:16:52.908Z,10912.00
2019-06-08T12:17:52.902Z,24224.00